createdAt,value
2023-10-18T00:00:30.222Z,6.43
2023-10-18T00:03:02.730Z,6.55
2023-10-18T00:05:33.009Z,6.47
2023-10-18T00:08:05.019Z,6.88
2023-10-18T00:10:36.396Z,6.72
2023-10-18T00:13:06.038Z,6.72
2023-10-18T00:15:35.563Z,6.55
2023-10-18T00:18:05.330Z,5.68
2023-10-18T00:20:34.843Z,6.55
2023-10-18T00:23:04.719Z,7.45
2023-10-18T00:25:34.426Z,6.50
2023-10-18T00:28:04.969Z,6.45
2023-10-18T00:30:34.634Z,5.45
2023-10-18T00:33:04.441Z,6.03
2023-10-18T00:35:37.716Z,6.80
2023-10-18T00:38:09.699Z,6.68
2023-10-18T00:40:42.088Z,6.35
2023-10-18T00:45:46.657Z,5.78
2023-10-18T00:48:16.778Z,6.93
2023-10-18T00:50:49.894Z,6.30
2023-10-18T00:53:23.919Z,6.90
2023-10-18T00:55:59.172Z,7.15
2023-10-18T00:58:30.543Z,6.75
2023-10-18T01:01:01.136Z,6.85
2023-10-18T01:03:34.003Z,6.78
2023-10-18T01:06:05.670Z,7.18
2023-10-18T01:08:38.826Z,6.40
2023-10-18T01:11:11.624Z,6.38
2023-10-18T01:13:43.951Z,7.38
2023-10-18T01:16:16.316Z,7.20
2023-10-18T01:21:18.019Z,6.90
2023-10-18T01:23:51.042Z,6.82
2023-10-18T01:26:23.204Z,6.75
2023-10-18T01:28:53.447Z,6.90
2023-10-18T01:31:23.610Z,6.55
2023-10-18T01:33:55.401Z,7.30
2023-10-18T01:36:27.248Z,6.95
2023-10-18T01:38:57.749Z,6.82
2023-10-18T01:44:07.567Z,7.05
2023-10-18T01:46:46.000Z,6.18
2023-10-18T01:49:18.596Z,7.55
2023-10-18T01:51:52.574Z,6.75
2023-10-18T01:54:26.489Z,5.93
2023-10-18T01:56:59.060Z,6.60
2023-10-18T01:59:29.964Z,6.88
2023-10-18T02:02:01.220Z,7.10
2023-10-18T02:04:45.021Z,6.82
2023-10-18T02:07:21.962Z,6.25
2023-10-18T02:09:54.552Z,6.28
2023-10-18T02:12:24.872Z,7.50
2023-10-18T02:14:56.981Z,5.75
2023-10-18T02:17:28.852Z,6.68
2023-10-18T02:20:01.317Z,5.80
2023-10-18T02:25:00.715Z,6.43
2023-10-18T02:27:30.335Z,6.80
2023-10-18T02:29:59.800Z,6.90
2023-10-18T02:32:35.571Z,6.28
2023-10-18T02:35:10.413Z,6.32
2023-10-18T02:37:39.934Z,6.57
2023-10-18T02:40:30.546Z,6.10
2023-10-18T02:43:06.899Z,6.95
2023-10-18T02:45:36.380Z,6.28
2023-10-18T02:48:10.062Z,6.53
2023-10-18T02:50:40.486Z,5.82
2023-10-18T02:53:10.448Z,7.03
2023-10-18T02:55:43.008Z,6.40
2023-10-18T02:58:12.652Z,6.18
2023-10-18T03:00:43.490Z,7.07
2023-10-18T03:03:13.762Z,7.20
2023-10-18T03:05:45.000Z,7.13
2023-10-18T03:08:14.556Z,6.82
2023-10-18T03:10:49.034Z,8.05
2023-10-18T03:13:19.531Z,5.85
2023-10-18T03:16:06.306Z,6.15
2023-10-18T03:18:38.551Z,6.00
2023-10-18T03:21:09.656Z,6.50
2023-10-18T03:23:45.913Z,6.65
2023-10-18T03:26:15.476Z,7.00
2023-10-18T03:28:47.357Z,7.05
2023-10-18T03:31:28.768Z,6.22
2023-10-18T03:34:03.473Z,6.22
2023-10-18T03:36:50.390Z,7.00
2023-10-18T03:39:20.884Z,6.50
2023-10-18T03:41:51.510Z,6.82
2023-10-18T03:44:23.042Z,6.05
2023-10-18T03:46:57.190Z,7.28
2023-10-18T03:49:32.603Z,6.82
2023-10-18T03:52:17.821Z,6.65
2023-10-18T03:54:48.972Z,7.28
2023-10-18T03:57:29.364Z,6.03
2023-10-18T03:59:59.670Z,6.68
2023-10-18T04:02:30.668Z,6.88
2023-10-18T04:05:14.817Z,6.07
2023-10-18T04:07:44.339Z,7.93
2023-10-18T04:10:18.942Z,6.63
2023-10-18T04:12:48.423Z,6.47
2023-10-18T04:15:24.498Z,7.85
2023-10-18T04:18:05.103Z,7.28
2023-10-18T04:20:35.736Z,7.00
2023-10-18T04:23:14.004Z,7.03
2023-10-18T04:25:43.576Z,7.40
2023-10-18T04:28:14.419Z,6.60
2023-10-18T04:30:43.970Z,6.53
2023-10-18T04:33:23.765Z,7.30
2023-10-18T04:35:53.983Z,6.60
2023-10-18T04:38:31.460Z,7.10
2023-10-18T04:41:08.913Z,6.72
2023-10-18T04:43:38.787Z,6.55
2023-10-18T04:46:16.369Z,5.90
2023-10-18T04:49:01.237Z,6.57
2023-10-18T04:51:34.890Z,6.40
2023-10-18T04:54:11.629Z,7.90
2023-10-18T04:56:39.720Z,7.32
2023-10-18T04:59:12.585Z,8.05
2023-10-18T05:01:51.081Z,6.10
2023-10-18T05:04:26.377Z,6.57
2023-10-18T05:06:58.138Z,6.75
2023-10-18T05:09:33.249Z,6.57
2023-10-18T05:12:07.975Z,6.00
2023-10-18T05:17:19.249Z,6.72
2023-10-18T05:19:49.917Z,6.18
2023-10-18T05:22:21.355Z,6.50
2023-10-18T05:24:56.673Z,6.90
2023-10-18T05:27:29.521Z,6.65
2023-10-18T05:30:00.048Z,5.90
2023-10-18T05:32:50.859Z,7.18
2023-10-18T05:35:28.262Z,7.57
2023-10-18T05:38:20.525Z,7.53
2023-10-18T05:40:50.676Z,6.03
2023-10-18T05:43:36.606Z,6.47
2023-10-18T05:46:09.261Z,6.07
2023-10-18T05:48:42.658Z,6.72
2023-10-18T05:53:59.020Z,5.82
2023-10-18T05:56:34.277Z,6.18
2023-10-18T05:59:19.780Z,6.50
2023-10-18T06:01:50.073Z,7.45
2023-10-18T06:04:25.697Z,6.03
2023-10-18T06:06:59.476Z,6.82
2023-10-18T06:09:34.573Z,6.47
2023-10-18T06:12:05.554Z,6.70
2023-10-18T06:14:42.112Z,6.80
2023-10-18T06:17:13.869Z,5.90
2023-10-18T06:19:46.678Z,5.90
2023-10-18T06:22:29.241Z,6.13
2023-10-18T06:25:01.687Z,5.80
2023-10-18T06:27:40.786Z,7.53
2023-10-18T06:30:16.386Z,6.82
2023-10-18T06:32:46.450Z,6.30
2023-10-18T06:35:19.301Z,6.15
2023-10-18T06:37:48.870Z,6.38
2023-10-18T06:40:50.566Z,6.32
2023-10-18T06:43:28.483Z,6.03
2023-10-18T06:45:58.938Z,6.20
2023-10-18T06:48:32.713Z,6.40
2023-10-18T06:51:02.752Z,6.85
2023-10-18T06:53:32.438Z,6.00
2023-10-18T06:56:08.156Z,6.35
2023-10-18T06:58:46.782Z,6.40
2023-10-18T07:01:21.650Z,5.65
2023-10-18T07:03:51.965Z,6.82
2023-10-18T07:06:25.929Z,6.82
2023-10-18T07:08:55.761Z,5.78
2023-10-18T07:11:41.707Z,6.40
2023-10-18T07:14:17.975Z,6.53
2023-10-18T07:16:50.068Z,6.88
2023-10-18T07:19:28.296Z,5.80
2023-10-18T07:21:58.431Z,5.57
2023-10-18T07:24:34.191Z,5.95
2023-10-18T07:27:05.505Z,6.43
2023-10-18T07:29:37.863Z,6.13
2023-10-18T07:32:08.411Z,5.82
2023-10-18T07:34:38.371Z,6.20
2023-10-18T07:37:18.854Z,5.75
2023-10-18T07:39:50.483Z,6.60
2023-10-18T07:42:20.744Z,5.80
2023-10-18T07:44:54.548Z,6.03
2023-10-18T07:47:26.981Z,6.07
2023-10-18T07:50:00.013Z,6.78
2023-10-18T07:52:29.744Z,6.28
2023-10-18T07:54:59.287Z,7.03
2023-10-18T07:57:35.199Z,5.82
2023-10-18T08:00:19.027Z,6.50
2023-10-18T08:02:51.825Z,5.68
2023-10-18T08:05:23.313Z,5.03
2023-10-18T08:07:53.862Z,5.47
2023-10-18T08:10:24.311Z,5.57
2023-10-18T08:13:05.672Z,5.45
2023-10-18T08:15:37.032Z,5.50
2023-10-18T08:18:16.461Z,5.82
2023-10-18T08:21:08.187Z,5.30
2023-10-18T08:23:42.021Z,5.03
2023-10-18T08:26:13.940Z,5.05
2023-10-18T08:28:47.377Z,5.25
2023-10-18T08:31:28.495Z,5.70
2023-10-18T08:33:58.897Z,5.53
2023-10-18T08:36:33.283Z,4.95
2023-10-18T08:39:03.275Z,5.38
2023-10-18T08:41:38.375Z,5.60
2023-10-18T08:44:21.049Z,5.32
2023-10-18T08:46:56.700Z,4.32
2023-10-18T08:49:33.721Z,4.50
2023-10-18T08:52:09.847Z,5.43
2023-10-18T08:54:41.048Z,5.00
2023-10-18T08:57:12.621Z,4.70
2023-10-18T08:59:48.453Z,4.63
2023-10-18T09:02:19.854Z,5.25
2023-10-18T09:04:56.408Z,4.40
2023-10-18T09:07:24.153Z,5.50
2023-10-18T09:09:58.657Z,5.35
2023-10-18T09:12:58.060Z,4.65
2023-10-18T09:15:48.920Z,3.92
2023-10-18T09:18:26.970Z,4.28
2023-10-18T09:20:57.663Z,4.40
2023-10-18T09:23:31.358Z,4.43
2023-10-18T09:26:07.788Z,4.82
2023-10-18T09:28:37.330Z,5.10
2023-10-18T09:31:13.743Z,4.95
2023-10-18T09:33:50.629Z,4.75
2023-10-18T09:36:25.391Z,4.82
2023-10-18T09:39:01.636Z,4.32
2023-10-18T09:41:32.902Z,4.82
2023-10-18T09:44:04.015Z,4.78
2023-10-18T09:46:34.116Z,5.22
2023-10-18T09:49:06.809Z,4.07
2023-10-18T09:51:41.833Z,4.45
2023-10-18T09:54:14.046Z,5.13
2023-10-18T09:56:43.913Z,4.78
2023-10-18T09:59:17.452Z,5.78
2023-10-18T10:02:01.961Z,4.88
2023-10-18T10:04:33.691Z,4.68
2023-10-18T10:07:18.854Z,4.47
2023-10-18T10:09:50.674Z,5.63
2023-10-18T10:12:20.681Z,5.55
2023-10-18T10:14:50.118Z,4.70
2023-10-18T10:17:22.354Z,4.03
2023-10-18T10:19:54.088Z,4.75
2023-10-18T10:22:26.164Z,4.38
2023-10-18T10:25:09.819Z,5.32
2023-10-18T10:27:54.685Z,4.78
2023-10-18T10:30:27.214Z,4.70
2023-10-18T10:33:00.199Z,5.00
2023-10-18T10:35:34.401Z,5.78
2023-10-18T10:38:07.056Z,4.45
2023-10-18T10:40:40.573Z,6.07
2023-10-18T10:43:14.029Z,6.95
2023-10-18T10:45:55.479Z,6.03
2023-10-18T10:48:32.906Z,6.27
2023-10-18T10:51:13.317Z,6.10
2023-10-18T10:53:49.764Z,5.90
2023-10-18T10:56:25.068Z,5.75
2023-10-18T10:59:04.171Z,7.18
2023-10-18T11:01:45.500Z,4.93
2023-10-18T11:04:25.730Z,5.37
2023-10-18T11:06:58.437Z,4.68
2023-10-18T11:09:34.129Z,5.38
2023-10-18T11:12:09.360Z,5.40
2023-10-18T11:14:39.853Z,5.20
2023-10-18T11:17:18.974Z,4.57
2023-10-18T11:19:55.461Z,4.95
2023-10-18T11:22:25.626Z,4.95
2023-10-18T11:24:57.019Z,5.03
2023-10-18T11:27:35.264Z,5.37
2023-10-18T11:30:17.092Z,4.47
2023-10-18T11:32:54.380Z,5.07
2023-10-18T11:35:44.036Z,5.55
2023-10-18T11:38:14.790Z,5.20
2023-10-18T11:40:45.676Z,4.90
2023-10-18T11:43:22.405Z,5.03
2023-10-18T11:46:07.094Z,4.93
2023-10-18T11:48:37.119Z,4.30
2023-10-18T11:51:07.715Z,5.22
2023-10-18T11:53:37.645Z,4.80
2023-10-18T11:56:10.216Z,4.80
2023-10-18T11:58:42.709Z,4.85
2023-10-18T12:01:32.860Z,4.97
2023-10-18T12:04:02.550Z,5.00
2023-10-18T12:06:33.025Z,4.68
2023-10-18T12:09:26.672Z,4.13
2023-10-18T12:11:56.696Z,4.68
2023-10-18T12:14:26.684Z,4.55
2023-10-18T12:16:56.652Z,4.88
2023-10-18T12:19:29.255Z,3.92
2023-10-18T12:22:01.421Z,4.30
2023-10-18T12:24:34.590Z,4.53
2023-10-18T12:27:19.509Z,3.92
2023-10-18T12:29:50.644Z,5.18
2023-10-18T12:32:26.967Z,4.63
2023-10-18T12:35:08.054Z,5.55
2023-10-18T12:37:41.823Z,5.18
2023-10-18T12:40:29.498Z,4.32
2023-10-18T12:43:01.857Z,4.60
2023-10-18T12:45:43.287Z,4.80
2023-10-18T12:48:15.609Z,4.72
2023-10-18T12:50:47.334Z,4.70
2023-10-18T12:56:21.795Z,4.18
2023-10-18T12:58:59.676Z,4.70
2023-10-18T13:01:33.225Z,4.63
2023-10-18T13:04:08.404Z,4.80
2023-10-18T13:06:37.197Z,4.53
2023-10-18T13:09:25.226Z,3.72
2023-10-18T13:12:09.491Z,4.35
2023-10-18T13:14:36.655Z,3.92
2023-10-18T13:17:12.227Z,4.18
2023-10-18T13:19:43.516Z,3.83
2023-10-18T13:22:20.492Z,3.88
2023-10-18T13:24:50.101Z,3.90
2023-10-18T13:27:20.122Z,4.28
2023-10-18T13:30:02.302Z,3.63
2023-10-18T13:32:34.260Z,3.58
2023-10-18T13:35:14.145Z,3.53
2023-10-18T13:37:44.535Z,3.50
2023-10-18T13:40:20.191Z,3.45
2023-10-18T13:42:51.200Z,4.15
2023-10-18T13:45:20.771Z,3.65
2023-10-18T13:47:50.457Z,3.42
2023-10-18T13:50:19.991Z,3.70
2023-10-18T13:52:51.716Z,3.45
2023-10-18T13:55:22.076Z,4.78
2023-10-18T13:57:51.547Z,3.50
2023-10-18T14:00:23.223Z,3.67
2023-10-18T14:02:55.689Z,2.72
2023-10-18T14:05:26.951Z,4.28
2023-10-18T14:07:56.488Z,3.25
2023-10-18T14:10:37.049Z,3.63
2023-10-18T14:13:07.867Z,2.72
2023-10-18T14:15:39.405Z,3.88
2023-10-18T14:18:09.470Z,3.45
2023-10-18T14:20:39.865Z,3.47
2023-10-18T14:23:11.578Z,3.13
2023-10-18T14:25:44.924Z,2.97
2023-10-18T14:28:14.676Z,3.40
2023-10-18T14:30:48.249Z,3.15
2023-10-18T14:33:24.119Z,2.60
2023-10-18T14:36:09.546Z,2.47
2023-10-18T14:38:40.223Z,3.50
2023-10-18T14:41:28.757Z,3.30
2023-10-18T14:44:02.286Z,3.20
2023-10-18T14:46:32.952Z,3.10
2023-10-18T14:49:02.839Z,3.83
2023-10-18T14:51:32.686Z,3.90
2023-10-18T14:54:02.106Z,3.88
2023-10-18T14:56:33.475Z,4.20
2023-10-18T14:59:03.095Z,3.77
2023-10-18T15:01:33.074Z,3.50
2023-10-18T15:04:04.541Z,4.00
2023-10-18T15:06:38.942Z,3.50
2023-10-18T15:09:09.891Z,3.35
2023-10-18T15:11:40.161Z,3.67
2023-10-18T15:14:13.153Z,3.67
2023-10-18T15:16:43.522Z,2.75
2023-10-18T15:19:16.381Z,3.85
2023-10-18T15:21:47.355Z,3.70
2023-10-18T15:24:17.380Z,3.50
2023-10-18T15:26:46.862Z,3.20
2023-10-18T15:29:19.204Z,3.33
2023-10-18T15:34:19.732Z,3.28
2023-10-18T15:36:50.502Z,3.53
2023-10-18T15:39:20.780Z,3.33
2023-10-18T15:41:52.808Z,3.17
2023-10-18T15:44:23.129Z,3.13
2023-10-18T15:46:54.700Z,3.17
2023-10-18T15:49:24.159Z,2.78
2023-10-18T15:51:53.812Z,3.35
2023-10-18T15:54:24.536Z,3.50
2023-10-18T15:56:54.213Z,3.33
2023-10-18T15:59:23.704Z,2.75
2023-10-18T16:01:59.501Z,3.05
2023-10-18T16:04:30.094Z,3.50
2023-10-18T16:06:59.701Z,3.50
2023-10-18T16:09:29.778Z,3.10
2023-10-18T16:12:00.080Z,3.30
2023-10-18T16:14:31.085Z,3.42
2023-10-18T16:17:02.526Z,2.93
2023-10-18T16:19:32.665Z,3.17
2023-10-18T16:22:02.134Z,3.13
2023-10-18T16:24:31.893Z,3.05
2023-10-18T16:27:01.602Z,2.90
2023-10-18T16:29:31.225Z,3.17
2023-10-18T16:32:01.665Z,3.45
2023-10-18T16:34:31.304Z,2.88
2023-10-18T16:37:00.962Z,3.20
2023-10-18T16:39:30.947Z,3.05
2023-10-18T16:42:03.080Z,3.80
2023-10-18T16:44:33.529Z,2.83
2023-10-18T16:47:03.231Z,2.78
2023-10-18T16:49:33.130Z,3.15
2023-10-18T16:52:02.582Z,3.33
2023-10-18T16:54:33.038Z,3.28
2023-10-18T16:57:02.884Z,3.08
2023-10-18T16:59:32.537Z,3.03
2023-10-18T17:02:02.290Z,3.38
2023-10-18T17:04:31.771Z,2.85
2023-10-18T17:07:01.212Z,3.08
2023-10-18T17:09:30.907Z,3.30
2023-10-18T17:12:00.532Z,2.92
2023-10-18T17:14:33.730Z,3.00
2023-10-18T17:17:04.917Z,3.40
2023-10-18T17:19:35.839Z,3.70
2023-10-18T17:22:05.337Z,3.55
2023-10-18T17:24:34.935Z,3.42
2023-10-18T17:27:05.235Z,3.22
2023-10-18T17:29:34.726Z,2.85
2023-10-18T17:32:08.629Z,3.92
2023-10-18T17:34:38.142Z,3.15
2023-10-18T17:37:04.970Z,3.20
2023-10-18T17:39:34.429Z,3.45
2023-10-18T17:42:03.891Z,3.53
2023-10-18T17:44:33.484Z,3.08
2023-10-18T17:47:03.798Z,3.30
2023-10-18T17:49:34.029Z,2.72
2023-10-18T17:52:03.802Z,4.38
2023-10-18T17:54:33.737Z,2.90
2023-10-18T17:57:03.181Z,3.20
2023-10-18T17:59:32.971Z,2.88
2023-10-18T18:02:02.887Z,2.72
2023-10-18T18:04:34.949Z,4.10
2023-10-18T18:07:04.794Z,2.97
2023-10-18T18:09:35.197Z,3.25
2023-10-18T18:12:05.859Z,3.47
2023-10-18T18:14:37.297Z,4.03
2023-10-18T18:17:08.651Z,4.07
2023-10-18T18:19:38.187Z,4.03
2023-10-18T18:22:07.878Z,3.65
2023-10-18T18:24:37.321Z,3.83
2023-10-18T18:27:06.783Z,2.55
2023-10-18T18:29:37.649Z,3.00
2023-10-18T18:32:07.246Z,3.78
2023-10-18T18:34:37.781Z,3.47
2023-10-18T18:37:07.239Z,4.05
2023-10-18T18:39:36.753Z,3.53
2023-10-18T18:42:06.374Z,3.53
2023-10-18T18:44:36.430Z,2.67
2023-10-18T18:47:06.525Z,2.95
2023-10-18T18:49:35.999Z,3.22
2023-10-18T18:52:05.464Z,2.80
2023-10-18T18:54:34.909Z,3.35
2023-10-18T18:57:05.101Z,2.60
2023-10-18T18:59:34.551Z,2.55
2023-10-18T19:02:04.541Z,2.97
2023-10-18T19:04:34.070Z,2.88
2023-10-18T19:07:04.081Z,2.72
2023-10-18T19:09:33.508Z,2.92
2023-10-18T19:12:03.223Z,3.33
2023-10-18T19:14:34.113Z,3.05
2023-10-18T19:17:03.556Z,3.15
2023-10-18T19:19:33.236Z,3.33
2023-10-18T19:22:02.741Z,2.60
2023-10-18T19:24:32.228Z,3.20
2023-10-18T19:27:02.443Z,2.75
2023-10-18T19:29:56.979Z,2.70
2023-10-18T19:32:33.510Z,2.97
2023-10-18T19:35:21.312Z,2.70
2023-10-18T19:38:05.926Z,2.85
2023-10-18T19:40:35.448Z,2.80
2023-10-18T19:43:04.965Z,2.72
2023-10-18T19:45:34.368Z,2.70
2023-10-18T19:48:03.874Z,3.00
2023-10-18T19:50:33.458Z,2.30
2023-10-18T19:53:02.937Z,3.47
2023-10-18T19:55:32.546Z,2.90
2023-10-18T19:58:02.064Z,3.05
2023-10-18T20:00:31.624Z,2.67
2023-10-18T20:03:01.312Z,3.83
2023-10-18T20:05:30.938Z,2.67
2023-10-18T20:08:00.396Z,3.25
2023-10-18T20:10:29.844Z,4.20
2023-10-18T20:12:59.954Z,3.08
2023-10-18T20:15:29.446Z,3.03
2023-10-18T20:17:59.121Z,2.85
2023-10-18T20:20:28.896Z,3.85
2023-10-18T20:23:01.314Z,3.20
2023-10-18T20:28:00.264Z,3.17
2023-10-18T20:30:30.521Z,4.05
2023-10-18T20:33:00.094Z,3.65
2023-10-18T20:35:29.643Z,3.60
2023-10-18T20:38:00.807Z,4.10
2023-10-18T20:40:30.634Z,3.40
2023-10-18T20:43:00.129Z,3.63
2023-10-18T20:45:35.743Z,3.90
2023-10-18T20:48:08.696Z,3.67
2023-10-18T20:50:39.126Z,3.75
2023-10-18T20:53:12.955Z,3.92
2023-10-18T20:55:45.873Z,3.53
2023-10-18T20:58:16.134Z,3.70
2023-10-18T21:00:46.258Z,4.13
2023-10-18T21:03:17.996Z,3.60
2023-10-18T21:05:49.533Z,4.30
2023-10-18T21:08:20.389Z,3.60
2023-10-18T21:10:49.921Z,3.92
2023-10-18T21:13:23.043Z,4.78
2023-10-18T21:15:52.744Z,4.45
2023-10-18T21:18:23.618Z,3.47
2023-10-18T21:21:00.630Z,3.70
2023-10-18T21:23:30.116Z,4.13
2023-10-18T21:26:00.744Z,3.83
2023-10-18T21:28:30.286Z,3.78
2023-10-18T21:31:04.644Z,4.30
2023-10-18T21:33:34.287Z,4.53
2023-10-18T21:36:11.945Z,4.20
2023-10-18T21:38:42.442Z,4.38
2023-10-18T21:41:20.019Z,3.95
2023-10-18T21:43:50.367Z,4.22
2023-10-18T21:46:20.261Z,4.50
2023-10-18T21:48:50.413Z,4.55
2023-10-18T21:51:20.416Z,4.53
2023-10-18T21:53:50.160Z,3.72
2023-10-18T21:56:19.731Z,3.95
2023-10-18T21:58:51.207Z,4.50
2023-10-18T22:01:43.777Z,4.25
2023-10-18T22:06:43.392Z,5.88
2023-10-18T22:09:25.926Z,5.32
2023-10-18T22:11:56.142Z,5.30
2023-10-18T22:14:27.249Z,5.38
2023-10-18T22:16:57.611Z,5.30
2023-10-18T22:19:32.018Z,5.10
2023-10-18T22:22:13.143Z,5.78
2023-10-18T22:24:43.554Z,5.30
2023-10-18T22:27:18.550Z,5.32
2023-10-18T22:29:51.683Z,4.90
2023-10-18T22:32:26.246Z,4.88
2023-10-18T22:34:56.486Z,5.20
2023-10-18T22:37:26.006Z,5.30
2023-10-18T22:40:00.003Z,6.65
2023-10-18T22:42:40.661Z,5.60
2023-10-18T22:45:25.886Z,5.00
2023-10-18T22:48:00.374Z,5.97
2023-10-18T22:50:39.496Z,5.80
2023-10-18T22:53:19.624Z,5.90
2023-10-18T22:55:58.287Z,6.50
2023-10-18T22:58:31.184Z,6.53
2023-10-18T23:01:02.509Z,6.85
2023-10-18T23:03:33.535Z,7.53
2023-10-18T23:06:09.377Z,7.00
2023-10-18T23:08:42.367Z,7.47
2023-10-18T23:11:22.249Z,7.13
2023-10-18T23:13:51.978Z,7.32
2023-10-18T23:16:34.745Z,7.28
2023-10-18T23:19:11.404Z,7.70
2023-10-18T23:21:47.957Z,7.03
2023-10-18T23:24:34.943Z,7.88
2023-10-18T23:27:16.846Z,7.60
2023-10-18T23:29:47.267Z,7.53
2023-10-18T23:32:30.920Z,7.85
2023-10-18T23:35:20.318Z,7.60
2023-10-18T23:37:56.546Z,7.40
2023-10-18T23:40:42.882Z,8.15
2023-10-18T23:43:33.706Z,7.68
2023-10-18T23:46:23.777Z,7.28
2023-10-18T23:49:05.478Z,7.00
2023-10-18T23:51:37.430Z,7.07
2023-10-18T23:54:07.051Z,7.53
2023-10-18T23:56:34.378Z,7.80
2023-10-18T23:59:05.768Z,8.05
